createdAt,value
2019-04-11T00:01:44.720Z,27.42
2019-04-11T00:04:12.159Z,25.55
2019-04-11T00:06:44.530Z,28.02
2019-04-11T00:09:18.765Z,27.42
2019-04-11T00:11:52.309Z,29.05
2019-04-11T00:14:24.659Z,28.62
2019-04-11T00:16:57.389Z,29.70
2019-04-11T00:19:30.186Z,27.93
2019-04-11T00:22:03.514Z,28.07
2019-04-11T00:24:36.679Z,26.15
2019-04-11T00:27:10.803Z,27.67
2019-04-11T00:29:43.371Z,25.88
2019-04-11T00:32:17.057Z,27.98
2019-04-11T00:34:51.084Z,26.75
2019-04-11T00:37:23.570Z,26.82
2019-04-11T00:39:56.283Z,27.65
2019-04-11T00:42:30.382Z,28.02
2019-04-11T00:45:03.364Z,28.60
2019-04-11T00:47:38.222Z,29.67
2019-04-11T00:50:11.037Z,28.67
2019-04-11T00:52:43.411Z,27.65
2019-04-11T00:55:17.488Z,27.17
2019-04-11T00:57:50.128Z,26.35
2019-04-11T01:00:22.931Z,26.23
2019-04-11T01:02:55.906Z,26.97
2019-04-11T01:05:29.712Z,26.85
2019-04-11T01:08:03.514Z,28.38
2019-04-11T01:10:36.218Z,29.10
2019-04-11T01:13:09.205Z,29.35
2019-04-11T01:15:43.071Z,28.50
2019-04-11T01:18:16.013Z,29.02
2019-04-11T01:20:48.700Z,27.90
2019-04-11T01:23:21.122Z,26.62
2019-04-11T01:25:54.929Z,29.15
2019-04-11T01:28:27.343Z,28.57
2019-04-11T01:31:01.686Z,29.65
2019-04-11T01:33:34.165Z,27.70
2019-04-11T01:36:07.083Z,28.45
2019-04-11T01:38:40.870Z,27.15
2019-04-11T01:41:14.099Z,28.83
2019-04-11T01:43:55.379Z,29.40
2019-04-11T01:46:20.680Z,28.90
2019-04-11T01:48:55.580Z,27.17
2019-04-11T01:51:28.015Z,29.25
2019-04-11T01:54:01.450Z,29.32
2019-04-11T01:56:33.880Z,29.25
2019-04-11T01:59:07.021Z,29.48
2019-04-11T02:01:41.077Z,29.65
2019-04-11T02:04:15.840Z,28.67
2019-04-11T02:06:48.343Z,29.55
2019-04-11T02:09:22.066Z,28.75
2019-04-11T02:11:56.075Z,27.65
2019-04-11T02:14:28.489Z,48.17
2019-04-11T02:17:01.219Z,33.65
2019-04-11T02:19:34.753Z,29.02
2019-04-11T02:22:08.925Z,29.82
2019-04-11T02:24:43.580Z,29.55
2019-04-11T02:27:18.946Z,28.85
2019-04-11T02:29:51.529Z,30.88
2019-04-11T02:32:25.491Z,31.85
2019-04-11T02:34:59.451Z,30.35
2019-04-11T02:37:34.345Z,28.70
2019-04-11T02:40:09.297Z,27.10
2019-04-11T02:42:43.198Z,28.60
2019-04-11T02:45:27.859Z,27.22
2019-04-11T02:47:53.216Z,28.02
2019-04-11T02:50:26.495Z,27.70
2019-04-11T02:52:58.816Z,27.50
2019-04-11T02:55:31.685Z,28.05
2019-04-11T02:58:06.251Z,28.32
2019-04-11T03:00:39.993Z,30.65
2019-04-11T03:03:13.011Z,28.75
2019-04-11T03:05:46.916Z,29.77
2019-04-11T03:08:21.729Z,31.48
2019-04-11T03:10:54.196Z,32.33
2019-04-11T03:13:29.288Z,31.35
2019-04-11T03:16:16.798Z,31.40
2019-04-11T03:18:54.885Z,30.02
2019-04-11T03:21:14.609Z,27.10
2019-04-11T03:23:44.242Z,26.17
2019-04-11T03:26:18.868Z,27.32
2019-04-11T03:28:55.632Z,27.27
2019-04-11T03:34:53.654Z,27.00
2019-04-11T03:37:13.711Z,26.65
2019-04-11T03:39:28.135Z,26.45
2019-04-11T03:41:59.713Z,26.80
2019-04-11T03:44:24.394Z,25.43
2019-04-11T03:47:08.350Z,26.27
2019-04-11T03:49:35.601Z,25.43
2019-04-11T03:52:01.191Z,25.45
2019-04-11T03:54:34.627Z,25.20
2019-04-11T03:57:09.669Z,23.95
2019-04-11T03:59:43.680Z,24.12
2019-04-11T04:02:16.982Z,24.92
2019-04-11T04:04:51.388Z,24.75
2019-04-11T04:07:25.124Z,23.45
2019-04-11T04:09:58.512Z,24.55
2019-04-11T04:12:31.477Z,23.20
2019-04-11T04:15:08.285Z,23.65
2019-04-11T04:17:43.209Z,23.87
2019-04-11T04:20:17.117Z,22.85
2019-04-11T04:22:52.403Z,23.50
2019-04-11T04:25:26.222Z,23.87
2019-04-11T04:27:59.029Z,23.42
2019-04-11T04:30:33.535Z,22.87
2019-04-11T04:33:07.135Z,24.37
2019-04-11T04:35:40.757Z,23.45
2019-04-11T04:38:15.594Z,22.22
2019-04-11T04:41:06.219Z,23.00
2019-04-11T04:43:26.926Z,23.40
2019-04-11T04:46:17.061Z,23.75
2019-04-11T04:48:34.389Z,24.80
2019-04-11T04:51:09.105Z,25.00
2019-04-11T04:53:41.074Z,24.67
2019-04-11T04:56:16.878Z,24.87
2019-04-11T04:58:50.629Z,24.43
2019-04-11T05:01:23.840Z,25.70
2019-04-11T05:03:58.126Z,25.02
2019-04-11T05:06:30.360Z,25.23
2019-04-11T05:09:04.176Z,25.70
2019-04-11T05:11:38.232Z,25.68
2019-04-11T05:14:12.523Z,26.55
2019-04-11T05:16:46.096Z,25.97
2019-04-11T05:19:19.098Z,26.02
2019-04-11T05:21:52.009Z,26.37
2019-04-11T05:24:24.738Z,26.27
2019-04-11T05:26:57.878Z,27.30
2019-04-11T05:29:30.477Z,26.07
2019-04-11T05:32:03.109Z,24.75
2019-04-11T05:34:35.719Z,25.77
2019-04-11T05:37:09.018Z,26.23
2019-04-11T05:39:42.355Z,24.55
2019-04-11T05:42:17.754Z,25.57
2019-04-11T05:44:49.681Z,25.35
2019-04-11T05:47:23.409Z,25.65
2019-04-11T05:49:57.285Z,26.23
2019-04-11T05:52:32.216Z,25.32
2019-04-11T05:55:09.588Z,24.12
2019-04-11T05:57:41.456Z,24.90
2019-04-11T06:00:16.116Z,24.75
2019-04-11T06:02:51.091Z,23.90
2019-04-11T06:05:31.241Z,23.20
2019-04-11T06:08:00.309Z,23.35
2019-04-11T06:10:34.028Z,23.35
2019-04-11T06:13:08.158Z,23.75
2019-04-11T06:15:43.928Z,22.52
2019-04-11T06:18:26.204Z,23.67
2019-04-11T06:20:53.541Z,23.95
2019-04-11T06:23:27.547Z,23.10
2019-04-11T06:26:02.215Z,22.20
2019-04-11T06:28:36.351Z,20.12
2019-04-11T06:31:10.027Z,21.55
2019-04-11T06:33:44.815Z,21.50
2019-04-11T06:36:18.499Z,24.55
2019-04-11T06:38:52.294Z,22.62
2019-04-11T06:41:26.306Z,23.07
2019-04-11T06:44:00.554Z,23.27
2019-04-11T06:46:38.931Z,20.90
2019-04-11T06:49:10.358Z,22.50
2019-04-11T06:51:44.237Z,22.77
2019-04-11T06:54:17.586Z,23.77
2019-04-11T06:56:52.088Z,23.67
2019-04-11T06:59:26.295Z,23.50
2019-04-11T07:02:08.814Z,24.20
2019-04-11T07:04:35.852Z,24.27
2019-04-11T07:07:11.052Z,24.75
2019-04-11T07:09:44.990Z,23.42
2019-04-11T07:12:19.025Z,23.40
2019-04-11T07:14:53.023Z,23.15
2019-04-11T07:17:27.542Z,23.62
2019-04-11T07:20:02.453Z,22.67
2019-04-11T07:22:36.849Z,22.60
2019-04-11T07:25:11.059Z,22.15
2019-04-11T07:27:45.056Z,22.37
2019-04-11T07:30:19.338Z,21.45
2019-04-11T07:32:53.286Z,21.87
2019-04-11T07:35:27.638Z,21.70
2019-04-11T07:38:01.062Z,21.15
2019-04-11T07:40:35.590Z,20.35
2019-04-11T07:43:13.329Z,18.85
2019-04-11T07:45:44.150Z,19.70
2019-04-11T07:48:17.841Z,19.75
2019-04-11T07:50:50.766Z,17.77
2019-04-11T07:53:26.242Z,18.65
2019-04-11T07:56:00.938Z,20.82
2019-04-11T07:58:35.252Z,20.55
2019-04-11T08:01:10.390Z,20.97
2019-04-11T08:03:44.664Z,20.55
2019-04-11T08:06:18.657Z,20.97
2019-04-11T08:08:52.691Z,22.67
2019-04-11T08:11:27.396Z,21.42
2019-04-11T08:14:02.221Z,21.85
2019-04-11T08:16:37.087Z,20.48
2019-04-11T08:19:11.089Z,21.40
2019-04-11T08:21:46.089Z,19.75
2019-04-11T08:24:20.489Z,19.62
2019-04-11T08:26:55.378Z,19.15
2019-04-11T08:29:30.411Z,19.40
2019-04-11T08:32:05.745Z,19.95
2019-04-11T08:34:39.647Z,19.35
2019-04-11T08:37:13.699Z,19.70
2019-04-11T08:39:47.151Z,16.35
2019-04-11T08:42:21.317Z,17.77
2019-04-11T08:44:54.261Z,18.35
2019-04-11T08:47:40.144Z,19.80
2019-04-11T08:50:02.117Z,19.73
2019-04-11T08:52:36.140Z,18.50
2019-04-11T08:55:10.455Z,18.52
2019-04-11T08:57:44.503Z,19.27
2019-04-11T09:00:19.030Z,18.17
2019-04-11T09:02:53.407Z,18.67
2019-04-11T09:05:29.036Z,18.60
2019-04-11T09:08:03.034Z,17.92
2019-04-11T09:10:37.157Z,18.57
2019-04-11T09:13:13.165Z,19.48
2019-04-11T09:15:49.571Z,20.45
2019-04-11T09:18:21.915Z,19.50
2019-04-11T09:20:55.989Z,17.95
2019-04-11T09:23:28.650Z,19.05
2019-04-11T09:26:03.554Z,18.62
2019-04-11T09:28:37.809Z,19.85
2019-04-11T09:31:13.991Z,18.80
2019-04-11T09:33:47.059Z,19.17
2019-04-11T09:36:21.938Z,18.15
2019-04-11T09:38:56.957Z,17.80
2019-04-11T09:41:30.850Z,18.27
2019-04-11T09:44:04.776Z,17.85
2019-04-11T09:46:38.703Z,17.40
2019-04-11T09:49:13.526Z,17.80
2019-04-11T09:51:47.788Z,17.75
2019-04-11T09:54:21.449Z,18.55
2019-04-11T09:56:55.953Z,18.52
2019-04-11T09:59:29.840Z,19.37
2019-04-11T10:02:03.528Z,18.45
2019-04-11T10:04:39.429Z,18.82
2019-04-11T10:07:13.430Z,19.05
2019-04-11T10:09:48.473Z,18.95
2019-04-11T10:12:22.416Z,18.17
2019-04-11T10:14:55.665Z,19.55
2019-04-11T10:17:29.670Z,22.17
2019-04-11T10:20:04.678Z,19.85
2019-04-11T10:22:38.609Z,20.52
2019-04-11T10:25:12.946Z,19.42
2019-04-11T10:27:47.011Z,20.95
2019-04-11T10:30:22.462Z,20.97
2019-04-11T10:32:57.321Z,20.88
2019-04-11T10:35:32.436Z,20.35
2019-04-11T10:38:06.805Z,20.43
2019-04-11T10:40:40.516Z,21.37
2019-04-11T10:43:13.310Z,25.05
2019-04-11T10:45:47.316Z,23.22
2019-04-11T10:48:32.601Z,21.30
2019-04-11T10:50:58.346Z,21.35
2019-04-11T10:53:31.211Z,22.22
2019-04-11T10:56:06.283Z,21.15
2019-04-11T10:58:40.657Z,23.22
2019-04-11T11:01:15.756Z,27.00
2019-04-11T11:03:49.420Z,27.48
2019-04-11T11:06:23.989Z,24.27
2019-04-11T11:08:57.722Z,23.57
2019-04-11T11:11:32.364Z,23.73
2019-04-11T11:14:06.686Z,28.62
2019-04-11T11:16:41.885Z,24.80
2019-04-11T11:19:33.710Z,23.75
2019-04-11T11:21:51.328Z,24.77
2019-04-11T11:24:25.961Z,23.27
2019-04-11T11:27:02.862Z,24.87
2019-04-11T11:29:35.036Z,26.12
2019-04-11T11:32:09.284Z,28.98
2019-04-11T11:34:44.433Z,30.40
2019-04-11T11:37:19.220Z,33.50
2019-04-11T11:39:52.887Z,32.55
2019-04-11T11:42:26.938Z,33.20
2019-04-11T11:45:02.406Z,32.30
2019-04-11T11:47:39.753Z,30.72
2019-04-11T11:50:18.228Z,31.97
2019-04-11T11:52:48.891Z,28.73
2019-04-11T11:55:22.742Z,28.17
2019-04-11T11:57:57.231Z,28.35
2019-04-11T12:00:30.717Z,27.13
2019-04-11T12:03:05.621Z,27.45
2019-04-11T12:05:45.603Z,27.93
2019-04-11T12:08:16.623Z,27.87
2019-04-11T12:10:51.330Z,29.63
2019-04-11T12:13:26.219Z,29.95
2019-04-11T12:16:00.088Z,31.12
2019-04-11T12:18:35.300Z,37.80
2019-04-11T12:21:09.435Z,30.52
2019-04-11T12:23:53.017Z,32.28
2019-04-11T12:26:18.297Z,33.63
2019-04-11T12:28:52.442Z,33.92
2019-04-11T12:31:26.124Z,34.38
2019-04-11T12:33:59.859Z,34.45
2019-04-11T12:36:34.759Z,36.23
2019-04-11T12:39:10.125Z,35.73
2019-04-11T12:41:45.578Z,50.33
2019-04-11T12:44:19.712Z,35.88
2019-04-11T12:46:53.383Z,36.45
2019-04-11T12:49:27.073Z,35.73
2019-04-11T12:52:00.780Z,35.13
2019-04-11T12:54:35.111Z,37.38
2019-04-11T12:57:08.705Z,36.17
2019-04-11T12:59:41.123Z,38.13
2019-04-11T13:02:14.993Z,36.38
2019-04-11T13:04:47.674Z,32.58
2019-04-11T13:07:21.473Z,32.00
2019-04-11T13:09:55.604Z,32.20
2019-04-11T13:12:29.789Z,50.05
2019-04-11T13:15:03.194Z,36.05
2019-04-11T13:17:37.673Z,34.00
2019-04-11T13:20:13.571Z,34.40
2019-04-11T13:22:46.062Z,33.53
2019-04-11T13:25:19.803Z,31.33
2019-04-11T13:27:53.468Z,32.88
2019-04-11T13:30:27.155Z,32.00
2019-04-11T13:33:00.308Z,32.28
2019-04-11T13:35:34.054Z,31.48
2019-04-11T13:38:08.452Z,33.50
2019-04-11T13:40:42.099Z,38.83
2019-04-11T13:43:17.008Z,37.73
2019-04-11T13:45:51.549Z,35.08
2019-04-11T13:48:25.557Z,34.27
2019-04-11T13:51:00.017Z,33.88
2019-04-11T13:53:34.110Z,36.13
2019-04-11T13:56:07.280Z,34.70
2019-04-11T13:58:41.315Z,35.30
2019-04-11T14:01:14.242Z,33.13
2019-04-11T14:03:47.713Z,32.50
2019-04-11T14:06:21.777Z,33.67
2019-04-11T14:08:55.888Z,37.10
2019-04-11T14:11:31.535Z,36.75
2019-04-11T14:14:05.397Z,34.30
2019-04-11T14:16:41.538Z,35.00
2019-04-11T14:19:14.802Z,31.52
2019-04-11T14:21:48.914Z,33.18
2019-04-11T14:24:22.791Z,33.53
2019-04-11T14:26:56.683Z,33.53
2019-04-11T14:29:30.449Z,34.48
2019-04-11T14:32:04.135Z,32.75
2019-04-11T14:34:38.147Z,31.55
2019-04-11T14:37:11.810Z,31.95
2019-04-11T14:39:46.168Z,31.37
2019-04-11T14:42:20.171Z,33.28
2019-04-11T14:44:54.393Z,31.23
2019-04-11T14:47:28.161Z,33.48
2019-04-11T14:50:02.214Z,30.52
2019-04-11T14:52:35.917Z,30.40
2019-04-11T14:55:08.843Z,31.55
2019-04-11T14:57:42.441Z,30.17
2019-04-11T15:00:18.361Z,30.35
2019-04-11T15:02:52.488Z,30.55
2019-04-11T15:05:26.920Z,30.72
2019-04-11T15:07:59.816Z,30.95
2019-04-11T15:10:33.814Z,30.37
2019-04-11T15:13:07.382Z,30.32
2019-04-11T15:15:41.391Z,29.85
2019-04-11T15:18:14.463Z,29.60
2019-04-11T15:20:54.980Z,29.30
2019-04-11T15:23:23.556Z,27.10
2019-04-11T15:25:57.932Z,26.65
2019-04-11T15:28:31.621Z,25.17
2019-04-11T15:31:05.213Z,24.60
2019-04-11T15:33:39.007Z,23.75
2019-04-11T15:36:13.556Z,23.73
2019-04-11T15:38:47.249Z,22.22
2019-04-11T15:41:19.994Z,22.05
2019-04-11T15:43:54.010Z,21.57
2019-04-11T15:46:28.433Z,21.23
2019-04-11T15:49:02.503Z,20.52
2019-04-11T15:51:36.171Z,20.43
2019-04-11T15:54:12.308Z,20.62
2019-04-11T15:56:46.766Z,20.45
2019-04-11T15:59:20.449Z,20.48
2019-04-11T16:01:53.912Z,21.05
2019-04-11T16:04:28.249Z,21.12
2019-04-11T16:07:02.697Z,21.73
2019-04-11T16:09:35.668Z,21.82
2019-04-11T16:12:09.342Z,22.58
2019-04-11T16:14:41.830Z,21.35
2019-04-11T16:17:15.621Z,21.37
2019-04-11T16:19:49.859Z,21.37
2019-04-11T16:22:24.876Z,21.42
2019-04-11T16:24:59.807Z,22.55
2019-04-11T16:27:34.313Z,22.37
2019-04-11T16:30:10.201Z,21.48
2019-04-11T16:32:44.685Z,21.75
2019-04-11T16:35:18.742Z,24.32
2019-04-11T16:37:53.401Z,23.70
2019-04-11T16:40:27.125Z,22.90
2019-04-11T16:43:01.570Z,23.32
2019-04-11T16:45:35.291Z,23.30
2019-04-11T16:48:08.005Z,22.22
2019-04-11T16:50:40.310Z,22.32
2019-04-11T16:53:13.022Z,21.57
2019-04-11T16:55:45.892Z,21.00
2019-04-11T16:58:19.588Z,21.93
2019-04-11T17:00:53.307Z,21.07
2019-04-11T17:03:25.826Z,22.58
2019-04-11T17:05:59.602Z,21.90
2019-04-11T17:08:33.269Z,22.80
2019-04-11T17:11:07.014Z,23.83
2019-04-11T17:13:39.605Z,25.77
2019-04-11T17:16:13.283Z,25.52
2019-04-11T17:18:45.674Z,25.25
2019-04-11T17:21:18.325Z,24.32
2019-04-11T17:23:50.658Z,25.75
2019-04-11T17:26:23.865Z,26.17
2019-04-11T17:28:56.430Z,25.80
2019-04-11T17:31:29.304Z,26.27
2019-04-11T17:34:02.430Z,25.27
2019-04-11T17:36:35.393Z,24.25
2019-04-11T17:39:09.071Z,24.02
2019-04-11T17:41:42.041Z,23.40
2019-04-11T17:44:15.356Z,23.62
2019-04-11T17:46:48.264Z,24.05
2019-04-11T17:49:20.682Z,23.83
2019-04-11T17:51:56.219Z,24.25
2019-04-11T17:54:26.997Z,22.67
2019-04-11T17:56:59.815Z,23.18
2019-04-11T17:59:32.582Z,23.92
2019-04-11T18:02:10.079Z,22.85
2019-04-11T18:04:43.971Z,22.77
2019-04-11T18:07:16.837Z,22.22
2019-04-11T18:09:47.886Z,22.67
2019-04-11T18:12:20.692Z,23.27
2019-04-11T18:14:52.908Z,23.57
2019-04-11T18:17:25.391Z,21.55
2019-04-11T18:19:57.667Z,22.15
2019-04-11T18:22:30.566Z,22.42
2019-04-11T18:25:02.965Z,23.83
2019-04-11T18:27:35.737Z,23.00
2019-04-11T18:30:10.642Z,22.65
2019-04-11T18:32:43.576Z,22.35
2019-04-11T18:35:16.277Z,21.77
2019-04-11T18:37:48.954Z,22.20
2019-04-11T18:40:21.488Z,21.17
2019-04-11T18:42:54.066Z,20.65
2019-04-11T18:45:26.474Z,22.17
2019-04-11T18:47:58.984Z,22.05
2019-04-11T18:50:32.734Z,21.52
2019-04-11T18:53:05.487Z,22.07
2019-04-11T18:55:37.868Z,23.00
2019-04-11T18:58:10.432Z,21.77
2019-04-11T19:00:43.154Z,21.33
2019-04-11T19:03:15.932Z,19.65
2019-04-11T19:05:48.244Z,21.07
2019-04-11T19:08:21.217Z,20.60
2019-04-11T19:10:53.702Z,21.50
2019-04-11T19:13:26.715Z,21.00
2019-04-11T19:15:59.850Z,21.10
2019-04-11T19:18:32.348Z,21.70
2019-04-11T19:21:04.768Z,21.30
2019-04-11T19:23:39.046Z,21.80
2019-04-11T19:26:14.521Z,22.40
2019-04-11T19:28:44.758Z,21.15
2019-04-11T19:31:17.180Z,21.77
2019-04-11T19:33:49.518Z,22.50
2019-04-11T19:36:21.830Z,22.37
2019-04-11T19:38:54.452Z,20.90
2019-04-11T19:41:26.958Z,21.25
2019-04-11T19:43:59.348Z,21.60
2019-04-11T19:46:31.899Z,21.45
2019-04-11T19:49:04.888Z,20.97
2019-04-11T19:51:38.586Z,21.00
2019-04-11T19:54:10.930Z,21.48
2019-04-11T19:56:44.490Z,21.50
2019-04-11T19:59:17.257Z,21.97
2019-04-11T20:01:50.779Z,22.13
2019-04-11T20:04:24.645Z,22.42
2019-04-11T20:06:58.306Z,22.87
2019-04-11T20:09:30.837Z,22.00
2019-04-11T20:12:03.318Z,22.80
2019-04-11T20:14:35.995Z,22.07
2019-04-11T20:17:09.232Z,22.30
2019-04-11T20:19:42.392Z,21.35
2019-04-11T20:22:14.742Z,22.87
2019-04-11T20:24:47.145Z,22.58
2019-04-11T20:27:20.377Z,22.20
2019-04-11T20:29:55.267Z,22.42
2019-04-11T20:32:27.479Z,22.02
2019-04-11T20:35:00.041Z,22.37
2019-04-11T20:37:39.057Z,22.20
2019-04-11T20:40:07.423Z,21.90
2019-04-11T20:42:39.623Z,21.45
2019-04-11T20:45:12.499Z,21.95
2019-04-11T20:47:44.914Z,22.02
2019-04-11T20:50:17.917Z,22.87
2019-04-11T20:52:50.799Z,22.37
2019-04-11T20:55:23.103Z,21.97
2019-04-11T20:57:55.880Z,21.33
2019-04-11T21:00:28.387Z,22.42
2019-04-11T21:03:01.337Z,23.30
2019-04-11T21:05:33.622Z,22.30
2019-04-11T21:08:06.153Z,23.22
2019-04-11T21:10:38.245Z,22.00
2019-04-11T21:13:10.979Z,23.47
2019-04-11T21:15:44.461Z,22.30
2019-04-11T21:18:17.010Z,21.37
2019-04-11T21:20:49.762Z,23.12
2019-04-11T21:23:24.686Z,22.42
2019-04-11T21:25:58.841Z,21.68
2019-04-11T21:28:30.289Z,22.50
2019-04-11T21:31:03.534Z,23.18
2019-04-11T21:33:35.996Z,23.30
2019-04-11T21:36:08.525Z,21.97
2019-04-11T21:38:41.035Z,22.02
2019-04-11T21:41:13.587Z,22.65
2019-04-11T21:43:45.904Z,23.45
2019-04-11T21:46:19.575Z,23.15
2019-04-11T21:48:51.883Z,22.93
2019-04-11T21:51:24.693Z,24.40
2019-04-11T21:53:58.004Z,23.83
2019-04-11T21:56:30.850Z,23.32
2019-04-11T21:59:03.226Z,22.73
2019-04-11T22:01:37.875Z,25.55
2019-04-11T22:04:11.027Z,23.90
2019-04-11T22:06:43.510Z,24.12
2019-04-11T22:09:15.838Z,25.00
2019-04-11T22:11:48.496Z,24.12
2019-04-11T22:14:21.080Z,23.60
2019-04-11T22:16:54.987Z,24.57
2019-04-11T22:19:27.410Z,26.10
2019-04-11T22:21:59.927Z,25.75
2019-04-11T22:24:32.648Z,26.07
2019-04-11T22:27:05.533Z,26.65
2019-04-11T22:29:37.975Z,26.40
2019-04-11T22:32:10.477Z,26.90
2019-04-11T22:34:44.682Z,26.62
2019-04-11T22:37:17.757Z,25.30
2019-04-11T22:39:50.335Z,24.50
2019-04-11T22:42:23.029Z,25.48
2019-04-11T22:44:56.103Z,26.25
2019-04-11T22:47:28.760Z,25.45
2019-04-11T22:50:01.272Z,26.57
2019-04-11T22:52:34.003Z,27.22
2019-04-11T22:55:11.006Z,27.65
2019-04-11T22:57:43.624Z,29.57
2019-04-11T23:00:16.440Z,28.42
2019-04-11T23:02:50.622Z,27.75
2019-04-11T23:05:23.204Z,27.65
2019-04-11T23:07:55.739Z,28.38
2019-04-11T23:10:28.152Z,28.57
2019-04-11T23:13:00.749Z,27.48
2019-04-11T23:15:33.869Z,27.30
2019-04-11T23:18:06.515Z,28.42
2019-04-11T23:20:38.709Z,28.57
2019-04-11T23:23:13.452Z,28.60
2019-04-11T23:25:45.343Z,29.60
2019-04-11T23:28:17.965Z,30.60
2019-04-11T23:30:50.564Z,30.00
2019-04-11T23:33:23.101Z,30.40
2019-04-11T23:35:55.501Z,31.62
2019-04-11T23:38:28.014Z,30.52
2019-04-11T23:41:00.449Z,31.37
2019-04-11T23:43:33.083Z,30.10
2019-04-11T23:46:05.505Z,30.02
2019-04-11T23:48:38.233Z,29.07
2019-04-11T23:51:11.099Z,30.85
2019-04-11T23:53:43.647Z,29.40
2019-04-11T23:56:16.855Z,30.35
2019-04-11T23:58:49.393Z,29.82
